CDT,Max TemperatureF,Mean TemperatureF,Min TemperatureF,Max Dew PointF,MeanDew PointF,Min DewpointF,Max Humidity, Mean Humidity, Min Humidity, Max Sea Level PressureIn, Mean Sea Level PressureIn, Min Sea Level PressureIn, Max VisibilityMiles, Mean VisibilityMiles, Min VisibilityMiles, Max Wind SpeedMPH, Mean Wind SpeedMPH, Max Gust SpeedMPH,PrecipitationIn, CloudCover, Events, WindDirDegrees
2013-5-1,82,70,59,64,60,56,93,72,50,30.04,29.93,29.84,10,10,10,21,8,30,0.00,0,,141
2013-5-2,63,49,35,60,41,34,100,89,77,30.37,30.28,30.06,10,9,2,26,16,33,0.26,8,Rain-Snow,342
2013-5-3,60,47,35,37,33,26,100,69,29,30.35,30.17,30.00,10,9,2,25,17,43,0.06,4,Rain-Snow,339
2013-5-4,50,44,39,46,41,37,100,91,79,30.05,29.96,29.93,10,8,2,17,8,22,0.26,8,Rain,323
2013-5-5,59,47,37,50,45,37,100,86,72,30.14,30.10,30.06,10,10,10,16,8,,0.00,6,,335
2013-5-6,68,56,45,55,51,45,100,85,59,30.14,30.08,30.02,10,9,4,12,7,,0.00,3,,345
2013-5-7,77,60,46,57,51,46,100,83,43,30.10,30.05,29.96,10,6,1,7,2,,0.00,0,,101
2013-5-8,81,68,55,63,57,50,89,68,40,30.01,29.96,29.88,10,10,10,17,8,26,0.02,1,Rain-Thunderstorm,154
2013-5-9,75,65,57,66,63,57,100,94,68,30.01,29.95,29.88,10,7,2,29,8,40,0.71,6,Rain-Thunderstorm,201
2013-5-10,73,66,57,66,62,53,100,92,59,30.08,29.96,29.91,10,5,0,16,4,,0.00,6,Fog-Thunderstorm,328
2013-5-11,77,62,50,57,50,38,100,72,36,30.23,30.14,30.08,10,9,1,17,6,23,0.00,0,,340
2013-5-12,72,57,43,49,41,33,93,55,28,30.29,30.22,30.15,10,10,10,7,4,,0.00,0,,55
2013-5-13,84,68,52,59,51,46,86,60,37,30.16,30.10,30.02,10,10,10,20,8,28,0.00,1,,184
2013-5-14,84,74,63,62,55,49,68,52,37,30.07,30.01,29.94,10,10,10,17,11,26,0.00,0,,198
2013-5-15,73,68,62,70,64,52,100,88,59,30.00,29.94,29.83,10,8,2,14,9,28,0.52,5,Rain-Thunderstorm,151
2013-5-16,73,67,62,67,64,62,100,94,78,29.89,29.85,29.79,10,9,2,12,7,,0.03,7,Rain,139
2013-5-17,80,70,60,72,65,61,100,93,74,29.93,29.88,29.85,10,5,0,8,3,,0.00,4,Fog,137
2013-5-18,86,78,70,75,72,69,100,86,67,29.89,29.83,29.75,9,6,4,15,9,21,0.00,2,Rain,153
2013-5-19,84,76,70,71,67,63,91,69,60,29.85,29.73,29.64,10,10,7,18,9,28,0.00,2,Thunderstorm,171
2013-5-20,80,70,62,72,66,58,100,80,63,29.82,29.73,29.62,10,8,1,39,13,52,0.54,5,Rain-Thunderstorm,184
2013-5-21,66,62,55,63,61,56,100,97,87,29.98,29.84,29.66,10,7,2,29,10,41,1.28,7,Rain-Thunderstorm,213
2013-5-22,78,64,51,64,55,52,100,91,54,29.94,29.86,29.83,10,4,0,12,4,16,0.01,1,Fog,185
2013-5-23,66,62,59,64,62,59,100,96,87,30.12,30.04,29.93,10,9,2,14,4,18,0.06,1,Rain,25
2013-5-24,78,68,59,65,61,58,100,79,64,30.23,30.17,30.12,10,10,6,17,8,22,0.00,0,,115
2013-5-25,81,72,62,70,63,55,97,76,61,30.21,30.13,30.03,10,9,1,16,10,24,0.24,3,Rain-Thunderstorm,137
2013-5-26,82,74,66,71,67,62,97,79,62,30.10,30.03,29.95,10,10,8,17,9,25,0.00,3,,163
2013-5-27,82,74,66,70,67,63,100,77,60,29.96,29.87,29.78,10,9,4,21,11,28,0.00,1,,164
2013-5-28,82,78,72,68,67,66,84,73,60,29.85,29.80,29.75,10,10,10,22,14,30,0.00,0,Rain,169
2013-5-29,80,72,64,70,67,64,100,82,68,29.88,29.81,29.71,10,8,1,21,12,45,0.74,5,Rain-Thunderstorm,161
2013-5-30,82,72,63,73,69,63,100,89,74,29.82,29.74,29.67,10,10,2,24,16,40,0.54,5,Rain-Thunderstorm,164
2013-5-31,86,78,69,74,72,68,100,83,63,29.81,29.74,29.65,10,10,10,25,13,33,0.01,5,Rain-Thunderstorm,176